Time;durP1;ratioP1;P1;durP2;ratioP2;P2;SDS_P1;SDS_P2;PMS_P1;PMS_P2;Temp;Humidity;BMP_temperature;BMP_pressure;BME280_temperature;BME280_humidity;BME280_pressure;Samples;Min_cycle;Max_cycle;Signal;HPM_P1;HPM_P2
2022/09/22 00:00:54;;;;;;;;;6.75;6.25;;;;;16.60;46.55;101844.69;4901898;29;45515;-81
2022/09/22 00:03:20;;;;;;;;;5.00;5.00;;;;;16.40;46.40;101826.63;4901771;29;49498;-80
2022/09/22 00:05:45;;;;;;;;;6.00;6.00;;;;;16.42;46.83;101822.94;4884741;29;45645;-81
2022/09/22 00:08:10;;;;;;;;;5.00;5.00;;;;;16.53;46.43;101841.34;4900713;29;46285;-81
2022/09/22 00:10:36;;;;;;;;;10.75;9.25;;;;;16.32;46.95;101801.78;4900664;28;63849;-80
2022/09/22 00:13:02;;;;;;;;;6.50;6.50;;;;;16.20;46.86;101793.25;4890668;28;45322;-81
2022/09/22 00:15:27;;;;;;;;;5.75;4.50;;;;;16.46;46.91;101839.84;4901257;29;45325;-81
2022/09/22 00:17:52;;;;;;;;;8.00;7.00;;;;;16.41;46.96;101842.72;4900371;28;56880;-80
2022/09/22 00:20:18;;;;;;;;;8.00;7.75;;;;;16.29;46.97;101827.91;4899931;28;62747;-80
2022/09/22 00:22:43;;;;;;;;;5.00;5.00;;;;;16.37;47.10;101843.81;4900604;29;45379;-79
2022/09/22 00:25:09;;;;;;;;;7.00;6.00;;;;;16.09;47.34;101790.97;4901577;29;45325;-79
2022/09/22 00:27:34;;;;;;;;;7.00;7.00;;;;;16.18;47.25;101807.72;4901350;29;45486;-79
2022/09/22 00:29:59;;;;;;;;;5.50;5.00;;;;;16.31;46.95;101835.94;4887901;29;45536;-79
2022/09/22 00:32:25;;;;;;;;;7.50;7.25;;;;;16.29;47.32;101830.63;4887476;29;47111;-80
2022/09/22 00:34:51;;;;;;;;;7.00;7.00;;;;;16.29;47.25;101835.13;4904785;29;45496;-80
2022/09/22 00:37:16;;;;;;;;;7.50;6.00;;;;;16.25;47.43;101834.34;4891428;28;45393;-80
2022/09/22 00:39:43;;;;;;;;;5.00;5.00;;;;;16.12;47.22;101822.28;4904686;29;45419;-80
2022/09/22 00:42:11;;;;;;;;;8.00;5.00;;;;;15.98;47.47;101806.66;4892328;29;46246;-80
2022/09/22 00:44:37;;;;;;;;;4.25;3.75;;;;;16.19;47.40;101836.41;4904738;29;45514;-79
2022/09/22 00:47:26;;;;;;;;;4.50;4.50;;;;;16.17;47.48;101835.59;4903986;28;45771;-80
2022/09/22 00:50:08;;;;;;;;;5.75;4.75;;;;;15.86;47.56;101802.63;4894819;28;45381;-80
2022/09/22 00:53:02;;;;;;;;;4.75;4.75;;;;;15.80;47.55;101791.22;4887302;29;46619;-80
2022/09/22 00:55:34;;;;;;;;;6.50;6.50;;;;;16.08;47.62;101840.38;4895547;29;45583;-80
2022/09/22 00:58:01;;;;;;;;;6.50;6.50;;;;;15.91;47.81;101815.94;4903870;28;45510;-80
2022/09/22 01:00:27;;;;;;;;;6.00;6.00;;;;;15.77;47.92;101794.91;4904778;29;45431;-80
2022/09/22 01:02:56;;;;;;;;;8.00;8.00;;;;;15.90;48.20;101817.75;4887031;29;47215;-80
2022/09/22 01:05:24;;;;;;;;;6.50;6.50;;;;;15.85;48.21;101808.94;4904077;29;45533;-80
2022/09/22 01:07:50;;;;;;;;;7.00;6.25;;;;;15.92;48.28;101832.03;4903304;28;45471;-80
2022/09/22 01:10:16;;;;;;;;;8.00;6.50;;;;;15.98;48.69;101835.41;4904392;29;45322;-80
2022/09/22 01:12:53;;;;;;;;;7.00;7.00;;;;;15.76;48.48;101795.84;4892428;28;45369;-80
2022/09/22 01:15:18;;;;;;;;;7.50;7.50;;;;;15.96;48.67;101830.09;4904173;29;45564;-80
2022/09/22 01:18:09;;;;;;;;;8.00;8.00;;;;;15.95;48.62;101827.44;4902245;28;45559;-80
2022/09/22 01:21:12;;;;;;;;;8.00;6.50;;;;;15.93;48.83;101823.00;4904041;29;45650;-80
2022/09/22 01:24:22;;;;;;;;;8.00;7.50;;;;;15.88;48.76;101816.03;4898885;29;46424;-79
2022/09/22 01:27:45;;;;;;;;;8.00;8.00;;;;;15.56;48.83;101757.03;4893826;28;45511;-80
2022/09/22 01:30:43;;;;;;;;;9.00;6.50;;;;;15.89;48.95;101825.88;4840929;29;45581;-80
2022/09/22 01:33:19;;;;;;;;;6.75;6.75;;;;;15.87;49.01;101820.56;4845393;29;45383;-80
2022/09/22 01:36:20;;;;;;;;;6.75;5.25;;;;;15.74;49.04;101793.16;4896713;28;46779;-80
2022/09/22 01:39:00;;;;;;;;;9.00;7.50;;;;;15.84;49.20;101815.28;4863096;29;45523;-80
2022/09/22 01:41:46;;;;;;;;;7.50;7.00;;;;;15.82;49.17;101816.25;4899275;29;45481;-80
2022/09/22 01:44:19;;;;;;;;;6.00;6.00;;;;;15.60;49.13;101786.53;4904088;29;45377;-80
2022/09/22 01:47:06;;;;;;;;;6.50;5.25;;;;;15.72;49.39;101803.13;4886402;29;47386;-80
2022/09/22 01:49:34;;;;;;;;;5.50;5.50;;;;;15.62;49.28;101788.25;4885854;29;45629;-80
2022/09/22 01:52:06;;;;;;;;;8.75;6.75;;;;;15.54;49.36;101777.75;4886841;29;45357;-80
2022/09/22 01:54:55;;;;;;;;;7.00;6.25;;;;;15.74;49.55;101813.84;4886288;29;45519;-80
2022/09/22 01:57:37;;;;;;;;;5.75;5.00;;;;;15.73;49.39;101807.56;4902581;28;46736;-80
2022/09/22 02:00:06;;;;;;;;;6.25;6.25;;;;;15.67;49.34;101804.22;4892722;29;45606;-80
2022/09/22 02:02:39;;;;;;;;;6.75;6.50;;;;;15.46;49.33;101776.28;4902845;28;45513;-80
2022/09/22 02:05:10;;;;;;;;;9.00;6.75;;;;;15.61;49.52;101802.63;4902453;28;45383;-80
2022/09/22 02:07:41;;;;;;;;;6.75;6.75;;;;;15.46;49.33;101774.47;4903165;29;46748;-80
2022/09/22 02:10:11;;;;;;;;;8.00;7.25;;;;;15.64;49.43;101807.91;4902734;28;45587;-80
2022/09/22 02:12:37;;;;;;;;;6.75;6.00;;;;;15.48;49.79;101783.34;4891796;28;45451;-80
2022/09/22 02:15:58;;;;;;;;;6.00;6.00;;;;;15.46;49.43;101785.22;4903544;29;45558;-81
2022/09/22 02:17:51;;;;;;;;;6.50;6.50;;;;;15.32;49.68;101755.28;4890578;29;46467;-80
2022/09/22 02:20:16;;;;;;;;;5.25;5.25;;;;;15.45;49.68;101778.13;4884607;28;45571;-80
2022/09/22 02:22:42;;;;;;;;;5.50;5.50;;;;;15.52;49.83;101789.53;4878956;29;45361;-80
2022/09/22 02:25:07;;;;;;;;;7.00;7.00;;;;;15.37;49.65;101764.94;4903173;29;45582;-80
2022/09/22 02:27:35;;;;;;;;;7.00;6.00;;;;;15.49;49.91;101787.81;4903161;29;46131;-80
2022/09/22 02:30:07;;;;;;;;;7.50;6.50;;;;;15.62;49.79;101803.50;4885233;29;45454;-80
2022/09/22 02:32:34;;;;;;;;;8.75;6.00;;;;;15.19;50.05;101726.09;4903168;29;45293;-80
2022/09/22 02:35:00;;;;;;;;;6.00;6.00;;;;;15.38;50.19;101761.31;4902970;29;45367;-80
2022/09/22 02:37:51;;;;;;;;;4.25;4.25;;;;;15.30;49.82;101755.31;4894882;29;46623;-80
2022/09/22 02:40:47;;;;;;;;;8.75;7.00;;;;;15.59;50.16;101800.94;4887892;28;45567;-81
2022/09/22 02:43:32;;;;;;;;;6.00;6.00;;;;;15.50;50.13;101797.66;4886833;29;45515;-80
2022/09/22 02:46:14;;;;;;;;;6.25;6.25;;;;;15.42;50.15;101778.22;4902762;29;45330;-81
2022/09/22 02:48:50;;;;;;;;;5.25;5.25;;;;;15.41;50.32;101779.13;4887239;29;45980;-80
2022/09/22 02:51:17;;;;;;;;;7.00;6.75;;;;;15.40;50.36;101782.75;4884021;29;45393;-80
2022/09/22 02:53:43;;;;;;;;;7.00;6.00;;;;;15.48;50.13;101790.56;4902711;29;45337;-81
2022/09/22 02:56:09;;;;;;;;;6.00;6.00;;;;;15.27;50.48;101762.59;4899723;29;45495;-81
2022/09/22 02:58:34;;;;;;;;;7.50;7.25;;;;;15.29;50.52;101760.75;4883833;29;45914;-80
2022/09/22 03:00:59;;;;;;;;;6.00;6.00;;;;;15.38;50.67;101773.88;4894536;28;45695;-80
2022/09/22 03:03:25;;;;;;;;;6.00;6.00;;;;;15.43;50.63;101781.78;4890618;28;55052;-80
2022/09/22 03:05:50;;;;;;;;;6.25;6.25;;;;;15.09;50.62;101723.81;4894158;29;45558;-80
2022/09/22 03:08:15;;;;;;;;;6.00;6.00;;;;;15.19;50.92;101747.63;4902246;29;45678;-80
2022/09/22 03:10:41;;;;;;;;;5.50;5.50;;;;;15.11;50.76;101730.00;4898669;28;46020;-80
2022/09/22 03:13:06;;;;;;;;;5.75;5.75;;;;;15.38;50.57;101781.94;4892286;28;45661;-81
2022/09/22 03:15:32;;;;;;;;;6.75;5.25;;;;;15.30;51.07;101773.25;4885314;28;45835;-80
2022/09/22 03:17:57;;;;;;;;;4.75;4.50;;;;;15.14;50.96;101749.59;4902451;29;45392;-80
2022/09/22 03:20:22;;;;;;;;;7.00;7.00;;;;;15.33;50.87;101782.09;4901549;28;45419;-80
2022/09/22 03:22:48;;;;;;;;;7.25;6.25;;;;;15.11;51.00;101751.53;4902598;29;45451;-80
2022/09/22 03:25:13;;;;;;;;;5.25;5.25;;;;;15.08;50.96;101739.06;4901057;29;45550;-80
2022/09/22 03:27:39;;;;;;;;;8.75;6.00;;;;;15.30;51.03;101779.53;4902384;29;47216;-80
2022/09/22 03:30:06;;;;;;;;;7.00;7.00;;;;;15.00;50.79;101733.06;4901512;28;45516;-80
2022/09/22 03:32:32;;;;;;;;;6.00;6.00;;;;;15.19;51.11;101769.13;4884962;29;45544;-80
2022/09/22 03:34:58;;;;;;;;;7.25;7.00;;;;;15.04;51.20;101740.09;4902161;29;45308;-80
2022/09/22 03:37:24;;;;;;;;;5.25;5.00;;;;;15.03;50.99;101732.09;4902093;29;45400;-80
2022/09/22 03:39:49;;;;;;;;;6.00;6.00;;;;;15.21;51.33;101765.53;4901457;28;45327;-80
2022/09/22 03:42:14;;;;;;;;;5.75;5.00;;;;;15.18;51.25;101772.78;4902616;29;45558;-80
2022/09/22 03:44:40;;;;;;;;;7.00;6.00;;;;;14.92;51.52;101721.72;4902069;29;45487;-80
2022/09/22 03:47:05;;;;;;;;;8.50;6.50;;;;;14.97;51.17;101733.19;4902104;29;46033;-80
2022/09/22 03:49:31;;;;;;;;;8.00;7.50;;;;;14.96;51.51;101736.81;4884043;28;45486;-80
2022/09/22 03:51:56;;;;;;;;;6.00;6.00;;;;;15.11;51.44;101768.53;4902376;29;45514;-80
2022/09/22 03:54:21;;;;;;;;;7.75;7.75;;;;;15.07;51.61;101757.94;4901956;29;45604;-80
2022/09/22 03:56:47;;;;;;;;;7.50;6.50;;;;;15.04;50.99;101750.88;4902051;29;45480;-80
2022/09/22 03:59:13;;;;;;;;;5.75;5.75;;;;;14.77;51.66;101701.63;4901490;29;45351;-80
2022/09/22 04:01:38;;;;;;;;;5.75;5.75;;;;;14.87;51.64;101735.31;4901033;28;45595;-80
2022/09/22 04:04:04;;;;;;;;;7.75;6.75;;;;;14.87;51.54;101727.25;4904336;29;45447;-80
2022/09/22 04:06:30;;;;;;;;;6.00;6.00;;;;;14.92;51.21;101741.41;4887988;29;46704;-80
2022/09/22 04:08:55;;;;;;;;;7.00;7.00;;;;;14.89;51.57;101738.84;4903705;29;45397;-80
2022/09/22 04:11:22;;;;;;;;;6.25;5.75;;;;;14.71;51.52;101708.09;4898287;28;45450;-80
2022/09/22 04:13:48;;;;;;;;;7.25;7.25;;;;;14.78;51.33;101724.88;4900197;28;45552;-80
2022/09/22 04:16:13;;;;;;;;;9.00;7.50;;;;;14.86;51.44;101736.25;4892594;29;45292;-80
2022/09/22 04:18:39;;;;;;;;;6.00;4.00;;;;;14.93;51.22;101744.97;4904952;29;45358;-80
2022/09/22 04:21:04;;;;;;;;;4.00;4.00;;;;;14.70;51.39;101709.03;4904122;28;45390;-80
2022/09/22 04:23:30;;;;;;;;;7.50;5.50;;;;;14.75;51.77;101716.91;4904294;28;45376;-80
2022/09/22 04:25:55;;;;;;;;;9.00;7.00;;;;;14.75;51.63;101717.81;4904004;28;46390;-80
2022/09/22 04:28:21;;;;;;;;;5.75;5.00;;;;;14.65;51.65;101702.94;4905021;29;45314;-80
2022/09/22 04:30:46;;;;;;;;;7.50;6.00;;;;;14.90;51.32;101745.06;4905234;29;45648;-80
2022/09/22 04:33:12;;;;;;;;;6.00;6.00;;;;;14.58;52.15;101688.81;4887659;29;45903;-80
2022/09/22 04:35:37;;;;;;;;;7.50;6.50;;;;;14.72;51.37;101717.91;4903759;29;45388;-80
2022/09/22 04:38:03;;;;;;;;;7.25;6.00;;;;;14.67;51.55;101706.44;4887492;29;45427;-80
2022/09/22 04:40:29;;;;;;;;;6.00;6.00;;;;;14.92;51.80;101748.63;4905103;29;45388;-80
2022/09/22 04:42:55;;;;;;;;;6.00;5.00;;;;;14.90;51.56;101745.06;4904805;29;45367;-80
2022/09/22 04:45:20;;;;;;;;;9.00;7.25;;;;;14.91;51.83;101744.16;4903949;29;47344;-80
2022/09/22 04:47:47;;;;;;;;;7.50;7.50;;;;;14.69;51.93;101711.78;4904266;28;45245;-80
2022/09/22 04:50:14;;;;;;;;;9.00;6.50;;;;;14.82;51.73;101731.91;4904776;29;45381;-80
2022/09/22 04:52:47;;;;;;;;;8.00;7.00;;;;;14.58;51.91;101695.97;4887283;29;45278;-80
2022/09/22 04:55:14;;;;;;;;;7.00;6.50;;;;;14.79;51.64;101738.25;4903842;28;45409;-80
2022/09/22 04:57:40;;;;;;;;;6.00;6.00;;;;;14.60;51.58;101704.88;4904300;29;45322;-80
2022/09/22 05:00:06;;;;;;;;;6.75;5.50;;;;;14.84;51.99;101743.50;4904828;29;45417;-80
2022/09/22 05:02:34;;;;;;;;;8.00;8.00;;;;;14.83;51.89;101752.47;4904220;29;45498;-80
2022/09/22 05:04:59;;;;;;;;;6.50;6.25;;;;;14.52;51.80;101710.50;4903443;28;45500;-80
2022/09/22 05:07:24;;;;;;;;;6.00;6.00;;;;;14.51;51.64;101708.72;4904097;29;45464;-80
2022/09/22 05:09:50;;;;;;;;;5.75;4.00;;;;;14.78;51.77;101752.66;4887311;29;45435;-80
2022/09/22 05:12:15;;;;;;;;;6.50;6.50;;;;;14.53;51.55;101708.66;4892681;28;45491;-80
2022/09/22 05:14:41;;;;;;;;;6.00;6.00;;;;;14.52;51.52;101720.38;4885919;29;46543;-80
2022/09/22 05:17:06;;;;;;;;;4.50;4.50;;;;;14.53;51.74;101717.59;4903075;29;45477;-80
2022/09/22 05:19:32;;;;;;;;;5.50;5.50;;;;;14.42;51.98;101701.00;4904438;29;45336;-80
2022/09/22 05:21:57;;;;;;;;;8.75;6.00;;;;;14.46;51.88;101711.56;4904108;29;45445;-80
2022/09/22 05:24:22;;;;;;;;;8.75;6.50;;;;;14.58;52.17;101741.63;4904257;29;45630;-80
2022/09/22 05:26:48;;;;;;;;;9.50;6.75;;;;;14.60;51.75;101745.19;4901738;29;45284;-80
2022/09/22 05:29:17;;;;;;;;;11.00;9.75;;;;;14.50;51.91;101732.94;4904411;29;45248;-80
2022/09/22 05:31:42;;;;;;;;;8.25;7.25;;;;;14.62;52.21;101754.09;4903758;29;45436;-80
2022/09/22 05:34:08;;;;;;;;;7.25;7.00;;;;;14.29;52.11;101708.56;4904086;29;46245;-80
2022/09/22 05:36:33;;;;;;;;;8.00;7.50;;;;;14.62;52.18;101765.72;4902966;28;45522;-80
2022/09/22 05:38:58;;;;;;;;;8.50;8.50;;;;;14.58;52.42;101763.13;4886836;29;45704;-80
2022/09/22 05:41:24;;;;;;;;;8.00;8.00;;;;;14.46;52.47;101749.16;4903720;29;45840;-80
2022/09/22 05:43:49;;;;;;;;;12.00;10.00;;;;;14.22;52.22;101715.06;4903926;29;46367;-80
2022/09/22 05:46:14;;;;;;;;;10.00;8.25;;;;;14.16;52.71;101708.06;4902779;28;45395;-80
2022/09/22 05:48:40;;;;;;;;;9.25;8.00;;;;;14.12;52.67;101709.09;4903733;29;45447;-80
2022/09/22 05:51:05;;;;;;;;;11.25;8.25;;;;;14.50;52.53;101774.16;4902764;29;48088;-80
2022/09/22 05:53:30;;;;;;;;;9.00;8.00;;;;;14.39;52.91;101753.00;4903775;29;46681;-80
2022/09/22 05:55:56;;;;;;;;;8.25;8.25;;;;;14.51;52.80;101778.56;4902975;29;45623;-78
2022/09/22 05:58:36;;;;;;;;;9.00;8.00;;;;;14.26;52.87;101739.06;4900752;28;46195;-74
2022/09/22 06:01:15;;;;;;;;;;;;;;;;;;;;;
2022/09/22 06:17:40;;;;;;;;;8.00;8.00;;;;;14.50;53.35;101792.97;4801818;28;46464;-73
2022/09/22 06:20:55;;;;;;;;;8.50;8.00;;;;;14.03;53.25;101709.38;4898698;28;45504;-73
2022/09/22 06:26:46;;;;;;;;;12.00;9.00;;;;;14.14;53.03;101712.63;4871733;28;45435;-73
2022/09/22 06:29:32;;;;;;;;;9.25;9.25;;;;;13.96;53.07;101679.16;4902849;29;45406;-73
2022/09/22 06:36:03;;;;;;;;;;;;;;;;;;;;;
2022/09/22 06:39:11;;;;;;;;;8.00;8.00;;;;;14.03;53.09;101698.66;4804658;29;72757;-73
2022/09/22 06:42:15;;;;;;;;;10.75;9.00;;;;;14.12;53.48;101705.56;4890386;29;46405;-73
2022/09/22 06:48:34;;;;;;;;;;;;;;;;;;;;;
2022/09/22 06:54:29;;;;;;;;;9.25;9.25;;;;;14.34;53.81;101728.09;4875324;29;46645;-81
2022/09/22 06:56:54;;;;;;;;;9.50;8.75;;;;;14.49;53.99;101753.56;4896415;29;45475;-83
2022/09/22 06:59:19;;;;;;;;;6.75;6.75;;;;;14.37;53.87;101732.50;4880464;29;45641;-80
2022/09/22 07:01:45;;;;;;;;;12.50;10.00;;;;;14.31;53.74;101724.63;4874038;29;45530;-78
2022/09/22 07:04:11;;;;;;;;;11.50;11.50;;;;;14.31;53.90;101720.13;4879926;29;46662;-78
2022/09/22 07:06:38;;;;;;;;;9.75;9.75;;;;;14.56;53.97;101776.63;4883661;28;45453;-78
2022/09/22 07:09:04;;;;;;;;;10.75;10.75;;;;;14.37;54.41;101738.72;4895520;28;45490;-78
2022/09/22 07:11:30;;;;;;;;;12.75;11.75;;;;;14.55;54.30;101765.91;4883919;29;45386;-78
2022/09/22 07:13:57;;;;;;;;;12.75;12.00;;;;;14.62;53.41;101770.22;4902596;28;46092;-78
2022/09/22 07:16:24;;;;;;;;;13.00;11.50;;;;;14.59;53.13;101765.81;4904347;28;46054;-77
2022/09/22 07:18:52;;;;;;;;;9.00;9.00;;;;;14.58;53.67;101769.41;4888331;29;45361;-77
2022/09/22 07:21:21;;;;;;;;;13.00;11.00;;;;;14.54;54.34;101754.28;4896773;29;45602;-78
2022/09/22 07:23:48;;;;;;;;;12.50;10.00;;;;;14.63;54.56;101767.47;4897313;29;46054;-78
2022/09/22 07:26:16;;;;;;;;;14.25;12.00;;;;;14.26;53.80;101708.66;4901624;29;45664;-78
2022/09/22 07:28:43;;;;;;;;;9.75;9.25;;;;;14.46;52.79;101738.41;4901306;29;45385;-77
2022/09/22 07:31:11;;;;;;;;;11.75;11.00;;;;;14.48;53.33;101741.06;4880360;29;45855;-77
2022/09/22 07:33:38;;;;;;;;;20.00;13.00;;;;;14.60;54.16;101750.56;4880721;29;47910;-77
2022/09/22 07:36:07;;;;;;;;;12.00;10.75;;;;;14.71;53.84;101769.03;4895202;29;45514;-77
2022/09/22 07:38:36;;;;;;;;;16.50;15.50;;;;;14.44;52.38;101725.97;4900793;29;45417;-77
2022/09/22 07:41:05;;;;;;;;;13.00;11.75;;;;;14.54;52.45;101740.88;4887134;28;45427;-77
2022/09/22 07:43:31;;;;;;;;;15.00;13.50;;;;;14.73;51.99;101768.03;4901068;29;45576;-77
2022/09/22 07:45:57;;;;;;;;;16.75;15.00;;;;;14.67;52.34;101752.13;4883580;29;45759;-77
2022/09/22 07:48:36;;;;;;;;;15.50;14.75;;;;;14.64;52.33;101744.16;4883141;29;45523;-77
2022/09/22 07:51:07;;;;;;;;;12.25;12.25;;;;;14.81;53.20;101765.09;4895529;29;45662;-77
2022/09/22 07:53:34;;;;;;;;;13.50;13.25;;;;;14.92;52.64;101767.44;4899334;28;45488;-77
2022/09/22 07:56:11;;;;;;;;;13.75;13.00;;;;;14.73;52.20;101737.59;4884641;28;45530;-77
2022/09/22 07:58:40;;;;;;;;;13.00;10.50;;;;;14.73;52.33;101727.72;4901124;29;45367;-77
2022/09/22 08:01:09;;;;;;;;;11.50;11.50;;;;;14.84;52.29;101739.94;4892947;29;45450;-77
2022/09/22 08:03:38;;;;;;;;;14.25;12.50;;;;;14.82;51.88;101729.22;4892257;28;45527;-77
2022/09/22 08:06:11;;;;;;;;;12.75;11.50;;;;;15.14;52.71;101781.88;4880660;29;46308;-77
2022/09/22 08:08:41;;;;;;;;;12.25;10.75;;;;;15.19;52.21;101773.66;4895647;29;45568;-77
2022/09/22 08:11:12;;;;;;;;;11.50;11.00;;;;;15.05;51.97;101733.81;4896449;28;45550;-77
2022/09/22 08:13:43;;;;;;;;;9.75;9.75;;;;;15.11;50.84;101741.63;4897282;28;46858;-78
2022/09/22 08:16:10;;;;;;;;;10.00;10.00;;;;;15.22;51.14;101753.81;4882596;29;45603;-78
2022/09/22 08:18:35;;;;;;;;;13.00;13.00;;;;;15.24;50.98;101751.97;4880298;29;45408;-78
2022/09/22 08:21:03;;;;;;;;;8.25;8.25;;;;;15.27;50.64;101757.22;4896650;29;45760;-78
2022/09/22 08:23:30;;;;;;;;;13.00;11.50;;;;;15.25;50.90;101737.56;4891014;29;46014;-77
2022/09/22 08:25:56;;;;;;;;;9.75;9.75;;;;;15.36;51.35;101746.16;4890503;29;45391;-77
2022/09/22 08:28:21;;;;;;;;;12.50;12.50;;;;;15.46;51.42;101747.56;4887695;29;45642;-77
2022/09/22 08:30:47;;;;;;;;;10.00;9.00;;;;;15.40;50.96;101738.84;4889516;29;45391;-77
2022/09/22 08:33:12;;;;;;;;;11.50;11.50;;;;;15.28;51.01;101721.34;4898001;29;45300;-77
2022/09/22 08:35:49;;;;;;;;;10.50;9.50;;;;;15.65;50.74;101772.00;4880555;29;45507;-77
2022/09/22 08:38:15;;;;;;;;;14.00;13.00;;;;;15.48;50.91;101737.59;4895186;29;45458;-77
2022/09/22 08:40:46;;;;;;;;;11.00;8.00;;;;;15.52;50.63;101731.19;4895678;29;45475;-77
2022/09/22 08:43:11;;;;;;;;;5.50;4.00;;;;;15.60;49.90;101736.28;4895269;29;45604;-77
2022/09/22 08:45:39;;;;;;;;;11.00;10.00;;;;;15.59;50.44;101715.69;4879437;29;45717;-76
2022/09/22 08:53:55;;;;;;;;;10.75;10.50;;;;;15.69;50.91;101697.38;4900823;29;45415;-77
2022/09/22 08:56:32;;;;;;;;;7.75;7.75;;;;;16.01;50.82;101744.63;4870390;29;45481;-76
2022/09/22 08:58:57;;;;;;;;;9.25;7.75;;;;;16.17;50.40;101761.06;4883818;29;45670;-77
2022/09/22 09:01:38;;;;;;;;;13.25;11.00;;;;;16.14;50.55;101739.63;4882602;29;45592;-77
2022/09/22 09:04:35;;;;;;;;;10.00;10.00;;;;;16.20;49.79;101739.38;4902585;29;45448;-77
2022/09/22 09:07:07;;;;;;;;;10.00;9.50;;;;;16.18;49.33;101724.22;4897656;28;45690;-77
2022/09/22 09:09:42;;;;;;;;;8.00;7.25;;;;;16.40;49.29;101754.72;4901250;29;45579;-77
2022/09/22 09:12:26;;;;;;;;;5.00;4.50;;;;;16.33;48.75;101730.81;4895153;28;45340;-77
2022/09/22 09:15:13;;;;;;;;;8.25;7.25;;;;;16.53;49.18;101754.25;4888097;29;47492;-77
2022/09/22 09:17:41;;;;;;;;;8.00;8.00;;;;;16.60;48.96;101764.69;4882129;29;45609;-78
2022/09/22 09:20:31;;;;;;;;;9.00;7.75;;;;;16.65;49.21;101751.03;4896755;28;45698;-79
2022/09/22 09:22:59;;;;;;;;;8.00;8.00;;;;;16.70;49.46;101754.41;4897581;29;45430;-69
2022/09/22 09:25:27;;;;;;;;;8.25;7.00;;;;;16.80;48.93;101754.91;4895773;29;45635;-68
2022/09/22 09:27:58;;;;;;;;;7.50;6.00;;;;;16.87;48.13;101751.03;4882737;29;45491;-74
2022/09/22 09:30:24;;;;;;;;;6.00;5.00;;;;;16.67;47.88;101716.78;4899310;29;45461;-77
2022/09/22 09:33:04;;;;;;;;;3.75;3.00;;;;;16.81;47.01;101735.09;4893976;29;45463;-77
2022/09/22 09:35:42;;;;;;;;;5.75;4.25;;;;;16.80;47.31;101725.25;4898848;28;46243;-77
2022/09/22 09:38:13;;;;;;;;;4.75;4.00;;;;;16.93;47.37;101734.59;4895322;28;45469;-77
2022/09/22 09:40:39;;;;;;;;;6.00;6.00;;;;;17.07;46.93;101739.38;4891106;29;45605;-77
2022/09/22 09:43:06;;;;;;;;;7.75;7.75;;;;;17.17;46.39;101753.34;4902756;28;45537;-75
2022/09/22 09:45:55;;;;;;;;;8.75;7.50;;;;;17.17;46.17;101746.16;4887043;29;45834;-78
2022/09/22 09:48:27;;;;;;;;;6.25;5.25;;;;;17.19;46.49;101744.25;4898894;28;45384;-77
2022/09/22 09:50:53;;;;;;;;;7.75;6.25;;;;;17.08;46.30;101710.59;4897916;29;45450;-78
2022/09/22 09:53:36;;;;;;;;;5.75;4.00;;;;;17.33;46.17;101746.31;4898306;28;45268;-78
2022/09/22 09:56:02;;;;;;;;;8.75;7.00;;;;;17.13;45.62;101701.34;4881661;29;47556;-77
2022/09/22 10:01:13;;;;;;;;;8.00;8.00;;;;;17.27;45.99;101700.72;4900850;29;45505;-76
2022/09/22 10:03:53;;;;;;;;;8.25;8.00;;;;;17.51;44.92;101722.16;4899345;29;45647;-77
2022/09/22 10:06:24;;;;;;;;;9.25;7.75;;;;;17.43;45.50;101700.03;4898502;28;46113;-77
2022/09/22 10:08:50;;;;;;;;;9.50;7.25;;;;;17.62;45.44;101733.31;4878377;29;45772;-77
2022/09/22 10:11:28;;;;;;;;;8.00;7.00;;;;;17.65;45.85;101716.13;4899207;28;46556;-77
2022/09/22 10:13:56;;;;;;;;;9.25;8.00;;;;;17.72;45.97;101717.56;4900990;28;45480;-77
2022/09/22 10:16:25;;;;;;;;;6.00;6.00;;;;;17.80;44.77;101717.22;4901538;29;45770;-78
2022/09/22 10:19:02;;;;;;;;;6.00;5.25;;;;;17.80;44.88;101704.59;4898066;28;45627;-77
2022/09/22 10:21:27;;;;;;;;;4.75;3.25;;;;;17.87;44.51;101708.75;4907226;28;45397;-77
2022/09/22 10:23:56;;;;;;;;;9.25;7.00;;;;;17.90;44.33;101699.66;4901180;29;45393;-77
2022/09/22 10:26:29;;;;;;;;;2.25;2.25;;;;;17.99;43.73;101701.91;4883841;29;47976;-77
2022/09/22 10:29:18;;;;;;;;;3.75;3.25;;;;;18.01;43.99;101708.13;4894045;28;45718;-75
2022/09/22 10:32:04;;;;;;;;;2.50;2.50;;;;;17.99;43.34;101701.91;4900016;29;45516;-76
2022/09/22 10:34:32;;;;;;;;;1.75;1.75;;;;;18.06;42.71;101697.97;4898662;29;45599;-76
2022/09/22 10:36:59;;;;;;;;;2.25;1.25;;;;;18.08;42.99;101695.19;4901138;29;45565;-76
2022/09/22 10:39:35;;;;;;;;;2.00;2.00;;;;;18.11;42.94;101681.53;4898510;28;45539;-77
2022/09/22 10:42:06;;;;;;;;;1.75;1.00;;;;;18.25;42.49;101695.22;4893073;29;45718;-77
2022/09/22 10:44:32;;;;;;;;;3.50;2.50;;;;;18.30;42.84;101703.97;4882594;29;45764;-77
2022/09/22 10:47:31;;;;;;;;;3.50;2.25;;;;;18.32;41.90;101685.84;4899764;28;45509;-77
2022/09/22 10:50:20;;;;;;;;;2.50;2.25;;;;;18.35;41.44;101687.53;4900168;29;45886;-77
2022/09/22 10:52:53;;;;;;;;;2.00;2.00;;;;;18.38;41.74;101679.28;4896743;28;45298;-78
2022/09/22 10:55:33;;;;;;;;;3.75;3.00;;;;;18.40;41.48;101680.06;4897165;29;45344;-74
2022/09/22 10:58:07;;;;;;;;;2.00;1.50;;;;;18.47;42.13;101672.53;4899153;29;46487;-78
2022/09/22 11:00:34;;;;;;;;;0.50;0.50;;;;;18.51;41.81;101663.34;4885693;29;45487;-79
2022/09/22 11:03:19;;;;;;;;;0.75;0.75;;;;;18.58;41.40;101672.00;4882893;29;45366;-80
2022/09/22 11:14:44;;;;;;;;;1.00;1.00;;;;;18.72;41.24;101657.75;4901144;28;46530;-77
2022/09/22 11:17:17;;;;;;;;;3.75;0.75;;;;;18.74;40.95;101656.72;4900208;29;45448;-78
2022/09/22 11:20:23;;;;;;;;;1.00;1.00;;;;;18.83;40.63;101650.00;4902066;29;46450;-78
2022/09/22 11:23:13;;;;;;;;;1.50;0.50;;;;;18.82;40.10;101648.19;4851945;29;45578;-79
2022/09/22 11:25:56;;;;;;;;;1.50;1.50;;;;;18.87;40.04;101655.13;4902543;29;45368;-78
2022/09/22 11:28:39;;;;;;;;;1.75;0.50;;;;;18.88;40.38;101643.38;4900493;29;45523;-79
2022/09/22 11:31:05;;;;;;;;;0.25;0.25;;;;;18.94;40.35;101644.00;4902052;29;46354;-78
2022/09/22 11:33:55;;;;;;;;;0.50;0.50;;;;;19.00;40.37;101638.28;4901645;29;45357;-80
2022/09/22 11:36:50;;;;;;;;;1.00;1.00;;;;;19.04;40.38;101640.75;4884834;29;45539;-77
2022/09/22 11:39:42;;;;;;;;;0.75;0.75;;;;;19.07;39.81;101637.84;4902155;29;45558;-76
2022/09/22 11:42:25;;;;;;;;;0.75;0.75;;;;;19.12;39.78;101644.84;4896811;29;45501;-83
2022/09/22 11:45:14;;;;;;;;;2.50;0.75;;;;;19.09;40.09;101637.75;4899783;29;45608;-82
2022/09/22 11:47:51;;;;;;;;;2.25;1.00;;;;;19.12;39.78;101629.47;4898595;29;45481;-71
2022/09/22 11:50:44;;;;;;;;;2.25;1.75;;;;;19.16;39.76;101633.78;4884729;28;45471;-75
2022/09/22 11:53:50;;;;;;;;;2.25;2.25;;;;;19.18;39.12;101636.41;4878752;29;47234;-81
2022/09/22 11:56:57;;;;;;;;;2.25;1.50;;;;;19.18;39.71;101631.88;4878301;29;45516;-80
2022/09/22 11:59:32;;;;;;;;;1.75;1.75;;;;;19.22;39.59;101632.56;4866820;29;45504;-79
2022/09/22 12:02:03;;;;;;;;;0.50;0.50;;;;;19.22;39.32;101610.91;4899706;29;45432;-82
2022/09/22 12:04:34;;;;;;;;;2.00;1.00;;;;;19.29;39.32;101616.88;4899724;28;45605;-81
2022/09/22 12:07:02;;;;;;;;;1.50;1.50;;;;;19.27;39.81;101613.38;4901486;29;45472;-80
2022/09/22 12:09:28;;;;;;;;;2.00;2.00;;;;;19.27;39.11;101619.66;4901960;29;45405;-79
2022/09/22 12:11:55;;;;;;;;;0.75;0.75;;;;;19.17;38.97;101597.63;4881506;28;45914;-80
2022/09/22 12:14:21;;;;;;;;;1.25;1.25;;;;;19.26;38.81;101601.66;4896791;28;45642;-80
2022/09/22 12:16:57;;;;;;;;;1.00;1.00;;;;;19.31;39.37;101602.31;4900337;29;45522;-80
2022/09/22 12:20:00;;;;;;;;;1.75;1.00;;;;;19.36;39.42;101596.59;4899173;29;45659;-81
2022/09/22 12:22:31;;;;;;;;;1.75;1.75;;;;;19.38;38.97;101597.41;4897928;29;45461;-80
2022/09/22 12:24:57;;;;;;;;;1.25;1.00;;;;;19.36;38.80;101585.78;4900809;28;45534;-77
2022/09/22 12:27:27;;;;;;;;;4.50;2.00;;;;;19.43;38.94;101589.91;4903808;28;45389;-81
2022/09/22 12:29:59;;;;;;;;;2.25;2.25;;;;;19.46;38.73;101587.00;4898137;29;45447;-77
2022/09/22 12:32:34;;;;;;;;;2.00;2.00;;;;;19.46;38.93;101578.00;4896237;28;45645;-77
2022/09/22 12:35:00;;;;;;;;;2.00;2.00;;;;;19.49;39.03;101576.00;4878864;29;48322;-78